Terminal Aerodrome Forecast
Issued by NWS

Home | Current Version | Previous Version | Graphics & Text | Print | Product List | Glossary On
Versions: 1 2 3 4 5 6 7 8 9 10 11 12
914
FTUS43 KMPX 212334
TAFRNH
TAF
KRNH 212334Z 2200/2224 14007KT P6SM SCT100
     FM220300 15007KT P6SM SCT250 WS020/18040KT
     FM221100 16006KT 5SM BR BKN050
     FM221500 18009KT P6SM SCT050 OVC120
     FM221600 18010G16KT P6SM BKN250=

USA.gov is the U.S. government's official web portal to all federal, state and local government web resources and services.